Aviation Digital Data Service (ADDS)

Output produced by METARs form (2106 UTC 21 September 2018)
found at http://aviationweather.gov/metar/data/
 
KPNE 212054Z 20007G15KT 170V230 10SM OVC028 25/18 A3009 RMK AO2 SLP188 T02500183 56013
KPNE 212052Z 20010G15KT 10SM OVC028 25/18 A3009 RMK AO2
KPNE 211720Z 2118/2218 18005KT P6SM BKN040 
     TEMPO 2118/2122 BKN025 
     FM212200 20008KT P6SM BKN080 
     FM220500 22006KT P6SM BKN050 BKN100 
     PROB30 2205/2209 4SM -TSRA OVC025CB 
     FM221100 32008KT P6SM BKN060 
     FM221400 34012KT P6SM SCT080